createdAt,value
2023-05-16T00:01:10.571Z,20.55
2023-05-16T00:03:38.508Z,18.60
2023-05-16T00:06:14.537Z,26.08
2023-05-16T00:08:45.888Z,20.75
2023-05-16T00:14:30.828Z,20.80
2023-05-16T00:16:59.432Z,22.10
2023-05-16T00:19:28.014Z,24.73
2023-05-16T00:22:00.065Z,17.75
2023-05-16T00:24:34.702Z,18.10
2023-05-16T00:27:01.922Z,17.73
2023-05-16T00:29:35.115Z,22.67
2023-05-16T00:32:02.550Z,16.85
2023-05-16T00:34:32.025Z,21.98
2023-05-16T00:36:59.150Z,20.55
2023-05-16T00:39:29.017Z,24.52
2023-05-16T00:41:58.017Z,23.75
2023-05-16T00:44:25.212Z,27.00
2023-05-16T00:47:02.965Z,20.73
2023-05-16T00:49:33.085Z,20.52
2023-05-16T00:52:04.232Z,25.30
2023-05-16T00:54:39.913Z,28.50
2023-05-16T00:57:11.353Z,22.08
2023-05-16T00:59:51.695Z,22.02
2023-05-16T01:02:19.011Z,20.58
2023-05-16T01:04:48.480Z,23.30
2023-05-16T01:07:15.791Z,20.17
2023-05-16T01:09:43.036Z,21.70
2023-05-16T01:13:01.588Z,19.25
2023-05-16T01:15:42.572Z,14.18
2023-05-16T01:18:15.955Z,19.13
2023-05-16T01:23:40.208Z,18.58
2023-05-16T01:26:33.725Z,14.30
2023-05-16T01:29:10.851Z,17.67
2023-05-16T01:31:40.505Z,16.20
2023-05-16T01:34:10.973Z,16.42
2023-05-16T01:36:41.568Z,12.82
2023-05-16T01:39:33.925Z,20.33
2023-05-16T01:42:09.155Z,15.40
2023-05-16T01:44:54.091Z,14.85
2023-05-16T01:47:23.660Z,13.48
2023-05-16T01:50:14.682Z,19.48
2023-05-16T01:52:48.361Z,18.58
2023-05-16T01:55:21.745Z,13.57
2023-05-16T01:57:49.932Z,15.02
2023-05-16T02:03:47.253Z,16.55
2023-05-16T02:06:24.390Z,19.52
2023-05-16T02:08:57.005Z,16.15
2023-05-16T02:11:38.482Z,17.90
2023-05-16T02:14:09.830Z,22.08
2023-05-16T02:16:39.541Z,20.48
2023-05-16T02:19:16.327Z,22.05
2023-05-16T02:21:48.344Z,17.17
2023-05-16T02:24:18.751Z,24.52
2023-05-16T02:26:53.569Z,16.83
2023-05-16T02:29:23.538Z,21.67
2023-05-16T02:32:00.273Z,15.50
2023-05-16T02:34:43.924Z,16.58
2023-05-16T02:37:22.628Z,22.40
2023-05-16T02:39:56.269Z,18.75
2023-05-16T02:42:26.044Z,21.30
2023-05-16T02:44:55.540Z,16.67
2023-05-16T02:47:28.811Z,16.65
2023-05-16T02:49:56.531Z,21.75
2023-05-16T02:52:26.311Z,18.80
2023-05-16T02:55:15.995Z,20.58
2023-05-16T02:57:52.104Z,18.27
2023-05-16T03:03:44.485Z,18.20
2023-05-16T03:06:11.841Z,19.77
2023-05-16T03:08:38.999Z,18.67
2023-05-16T03:11:06.454Z,19.55
2023-05-16T03:13:33.599Z,19.77
2023-05-16T03:16:01.095Z,20.77
2023-05-16T03:18:28.319Z,22.30
2023-05-16T03:20:55.531Z,18.88
2023-05-16T03:23:26.614Z,18.40
2023-05-16T03:25:53.915Z,17.80
2023-05-16T03:28:21.530Z,20.88
2023-05-16T03:30:49.009Z,21.17
2023-05-16T03:33:24.564Z,18.27
2023-05-16T03:35:52.421Z,14.27
2023-05-16T03:38:19.643Z,17.70
2023-05-16T03:40:48.642Z,16.60
2023-05-16T03:43:15.975Z,19.67
2023-05-16T03:45:44.221Z,22.92
2023-05-16T03:48:14.106Z,20.40
2023-05-16T03:50:43.865Z,12.13
2023-05-16T03:53:11.241Z,15.60
2023-05-16T03:55:38.287Z,18.70
2023-05-16T03:58:05.808Z,11.82
2023-05-16T04:00:34.760Z,11.13
2023-05-16T04:03:02.250Z,12.60
2023-05-16T04:05:29.978Z,12.23
2023-05-16T04:08:01.664Z,13.30
2023-05-16T04:10:28.870Z,11.90
2023-05-16T04:12:55.963Z,12.95
2023-05-16T04:15:23.131Z,12.07
2023-05-16T04:17:52.823Z,9.27
2023-05-16T04:20:21.322Z,9.10
2023-05-16T04:22:48.644Z,6.63
2023-05-16T04:25:18.431Z,8.55
2023-05-16T04:27:46.045Z,5.95
2023-05-16T04:30:13.791Z,7.20
2023-05-16T04:32:41.028Z,8.73
2023-05-16T04:35:09.395Z,3.35
2023-05-16T04:37:37.146Z,3.45
2023-05-16T04:40:04.523Z,6.25
2023-05-16T04:42:32.148Z,5.50
2023-05-16T04:44:59.337Z,2.45
2023-05-16T04:47:26.600Z,6.15
2023-05-16T04:49:53.687Z,3.03
2023-05-16T04:52:21.163Z,2.72
2023-05-16T04:54:54.585Z,3.55
2023-05-16T04:57:21.960Z,2.95
2023-05-16T05:00:01.664Z,3.03
2023-05-16T05:02:53.300Z,2.25
2023-05-16T05:05:34.207Z,1.75
2023-05-16T05:08:20.602Z,2.47
2023-05-16T05:11:00.153Z,2.75
2023-05-16T05:13:56.943Z,2.25
2023-05-16T05:16:30.318Z,4.60
2023-05-16T05:19:06.691Z,1.80
2023-05-16T05:24:27.009Z,2.22
2023-05-16T05:27:14.963Z,2.20
2023-05-16T05:29:57.088Z,3.65
2023-05-16T05:35:23.230Z,1.60
2023-05-16T05:37:52.707Z,4.13
2023-05-16T05:40:35.981Z,5.18
2023-05-16T05:43:20.236Z,2.13
2023-05-16T05:45:51.847Z,1.80
2023-05-16T05:48:30.065Z,2.75
2023-05-16T05:51:12.474Z,6.57
2023-05-16T05:54:08.769Z,4.13
2023-05-16T05:56:46.587Z,7.07
2023-05-16T05:59:16.015Z,3.78
2023-05-16T06:01:46.196Z,3.13
2023-05-16T06:04:25.958Z,4.18
2023-05-16T06:06:54.397Z,6.50
2023-05-16T06:09:24.561Z,1.95
2023-05-16T06:12:00.146Z,2.03
2023-05-16T06:14:48.124Z,4.07
2023-05-16T06:17:18.136Z,1.88
2023-05-16T06:19:55.277Z,7.93
2023-05-16T06:22:35.971Z,2.35
2023-05-16T06:25:16.788Z,7.40
2023-05-16T06:27:56.011Z,4.85
2023-05-16T06:30:30.545Z,2.45
2023-05-16T06:33:13.128Z,5.25
2023-05-16T06:36:23.204Z,2.90
2023-05-16T06:39:07.701Z,13.32
2023-05-16T06:42:02.295Z,4.05
2023-05-16T06:44:35.437Z,5.38
2023-05-16T06:47:19.182Z,5.85
2023-05-16T06:53:23.461Z,6.30
2023-05-16T06:56:08.354Z,6.40
2023-05-16T06:58:44.472Z,8.48
2023-05-16T07:01:25.384Z,7.28
2023-05-16T07:03:57.784Z,6.55
2023-05-16T07:06:31.757Z,8.10
2023-05-16T07:09:15.105Z,5.25
2023-05-16T07:12:13.109Z,6.72
2023-05-16T07:14:55.101Z,6.53
2023-05-16T07:17:35.801Z,3.17
2023-05-16T07:20:08.538Z,5.18
2023-05-16T07:22:43.974Z,6.60
2023-05-16T07:25:17.580Z,2.75
2023-05-16T07:31:02.537Z,9.05
2023-05-16T07:33:49.513Z,5.18
2023-05-16T07:36:23.030Z,4.30
2023-05-16T07:41:37.834Z,3.58
2023-05-16T07:44:08.019Z,6.80
2023-05-16T07:46:46.418Z,4.65
2023-05-16T07:49:17.392Z,7.45
2023-05-16T07:51:52.749Z,8.20
2023-05-16T07:54:30.473Z,4.05
2023-05-16T07:59:56.019Z,3.60
2023-05-16T08:02:30.964Z,4.90
2023-05-16T08:05:04.268Z,3.92
2023-05-16T08:07:36.275Z,1.70
2023-05-16T08:10:18.506Z,3.35
2023-05-16T08:12:55.814Z,4.80
2023-05-16T08:15:37.768Z,4.40
2023-05-16T08:18:26.064Z,7.68
2023-05-16T08:21:01.154Z,2.15
2023-05-16T08:23:35.197Z,2.08
2023-05-16T08:26:10.749Z,6.97
2023-05-16T08:28:53.163Z,7.13
2023-05-16T08:31:22.251Z,3.92
2023-05-16T08:33:49.932Z,3.15
2023-05-16T08:36:21.882Z,8.18
2023-05-16T08:38:51.165Z,4.78
2023-05-16T08:41:18.720Z,2.63
2023-05-16T08:43:48.510Z,4.45
2023-05-16T08:46:19.016Z,2.45
2023-05-16T08:48:47.690Z,1.58
2023-05-16T08:51:17.416Z,8.48
2023-05-16T08:53:51.197Z,4.07
2023-05-16T08:56:19.288Z,7.70
2023-05-16T08:58:47.013Z,7.43
2023-05-16T09:01:14.487Z,2.63
2023-05-16T09:03:43.221Z,8.57
2023-05-16T09:06:10.530Z,3.08
2023-05-16T09:08:40.008Z,4.50
2023-05-16T09:11:07.352Z,2.47
2023-05-16T09:13:39.663Z,4.70
2023-05-16T09:16:15.977Z,4.43
2023-05-16T09:19:11.620Z,2.97
2023-05-16T09:21:43.232Z,3.95
2023-05-16T09:24:10.816Z,6.60
2023-05-16T09:26:39.570Z,5.47
2023-05-16T09:29:20.457Z,6.30
2023-05-16T09:32:17.490Z,7.47
2023-05-16T09:34:50.939Z,4.72
2023-05-16T09:37:21.195Z,8.52
2023-05-16T09:39:57.997Z,3.17
2023-05-16T09:42:40.167Z,5.25
2023-05-16T09:45:17.035Z,4.32
2023-05-16T09:47:48.404Z,6.22
2023-05-16T09:50:21.817Z,7.78
2023-05-16T09:52:57.379Z,2.97
2023-05-16T09:55:44.881Z,5.03
2023-05-16T09:58:12.644Z,6.53
2023-05-16T10:01:01.927Z,6.57
2023-05-16T10:03:55.919Z,6.53
2023-05-16T10:06:29.426Z,6.13
2023-05-16T10:08:57.010Z,5.35
2023-05-16T10:11:25.647Z,7.63
2023-05-16T10:13:53.806Z,2.88
2023-05-16T10:16:24.255Z,6.22
2023-05-16T10:18:52.905Z,4.65
2023-05-16T10:21:25.382Z,6.28
2023-05-16T10:23:54.573Z,5.50
2023-05-16T10:26:24.182Z,3.83
2023-05-16T10:29:00.532Z,3.45
2023-05-16T10:31:29.757Z,3.58
2023-05-16T10:34:03.848Z,4.53
2023-05-16T10:36:43.244Z,10.43
2023-05-16T10:39:25.218Z,3.97
2023-05-16T10:42:11.553Z,5.20
2023-05-16T10:45:01.935Z,6.25
2023-05-16T10:47:37.894Z,10.03
2023-05-16T10:50:17.883Z,3.88
2023-05-16T10:52:55.174Z,5.57
2023-05-16T10:55:22.702Z,7.13
2023-05-16T10:58:03.052Z,5.70
2023-05-16T11:00:35.926Z,19.10
2023-05-16T11:03:28.629Z,7.07
2023-05-16T11:06:04.732Z,6.43
2023-05-16T11:08:40.676Z,8.35
2023-05-16T11:11:49.879Z,6.00
2023-05-16T11:14:26.934Z,9.98
2023-05-16T11:17:28.061Z,19.52
2023-05-16T11:20:15.535Z,10.27
2023-05-16T11:22:46.337Z,10.73
2023-05-16T11:25:46.243Z,10.95
2023-05-16T11:28:15.203Z,9.38
2023-05-16T11:31:20.791Z,13.98
2023-05-16T11:33:56.237Z,11.15
2023-05-16T11:36:31.361Z,10.93
2023-05-16T11:39:18.297Z,11.98
2023-05-16T11:41:59.333Z,8.93
2023-05-16T11:44:29.874Z,11.55
2023-05-16T11:47:05.311Z,11.43
2023-05-16T11:49:37.566Z,10.95
2023-05-16T11:52:09.803Z,16.17
2023-05-16T11:54:40.495Z,12.93
2023-05-16T11:57:25.080Z,11.30
2023-05-16T11:59:54.907Z,12.93
2023-05-16T12:02:22.330Z,14.23
2023-05-16T12:04:58.014Z,12.70
2023-05-16T12:07:34.049Z,11.65
2023-05-16T12:10:20.957Z,12.20
2023-05-16T12:12:57.160Z,11.43
2023-05-16T12:15:49.229Z,10.02
2023-05-16T12:18:22.555Z,11.27
2023-05-16T12:21:02.912Z,11.25
2023-05-16T12:23:31.702Z,10.77
2023-05-16T12:28:46.363Z,10.13
2023-05-16T12:31:32.114Z,9.65
2023-05-16T12:34:21.645Z,8.55
2023-05-16T12:37:16.890Z,10.75
2023-05-16T12:39:48.320Z,12.05
2023-05-16T12:42:15.974Z,11.10
2023-05-16T12:44:51.607Z,5.55
2023-05-16T12:47:22.640Z,9.75
2023-05-16T12:49:55.331Z,8.43
2023-05-16T12:52:52.438Z,4.95
2023-05-16T12:55:29.376Z,13.45
2023-05-16T12:58:04.193Z,8.02
2023-05-16T13:00:42.714Z,6.68
2023-05-16T13:03:10.189Z,12.00
2023-05-16T13:05:37.705Z,5.03
2023-05-16T13:08:07.886Z,2.78
2023-05-16T13:10:38.173Z,3.97
2023-05-16T13:13:07.923Z,4.88
2023-05-16T13:15:48.899Z,5.70
2023-05-16T13:18:19.740Z,4.68
2023-05-16T13:20:55.480Z,2.63
2023-05-16T13:23:33.353Z,7.97
2023-05-16T13:26:05.721Z,2.95
2023-05-16T13:28:35.092Z,2.63
2023-05-16T13:36:49.339Z,8.15
2023-05-16T13:39:24.214Z,2.70
2023-05-16T13:42:12.838Z,3.60
2023-05-16T13:47:24.456Z,6.05
2023-05-16T13:49:54.204Z,2.72
2023-05-16T13:52:37.106Z,2.88
2023-05-16T13:55:09.804Z,7.40
2023-05-16T13:57:46.030Z,9.15
2023-05-16T14:03:24.371Z,5.13
2023-05-16T14:06:01.839Z,4.75
2023-05-16T14:08:39.136Z,5.35
2023-05-16T14:11:17.882Z,5.03
2023-05-16T14:13:57.204Z,2.60
2023-05-16T14:16:37.901Z,4.32
2023-05-16T14:19:29.350Z,7.32
2023-05-16T14:22:18.647Z,3.17
2023-05-16T14:24:51.818Z,4.80
2023-05-16T14:27:24.595Z,4.10
2023-05-16T14:30:19.929Z,3.17
2023-05-16T14:32:54.264Z,6.32
2023-05-16T14:35:36.278Z,4.75
2023-05-16T14:38:36.175Z,5.10
2023-05-16T14:43:51.521Z,8.32
2023-05-16T14:46:27.354Z,5.85
2023-05-16T14:48:59.975Z,8.05
2023-05-16T14:51:41.178Z,5.40
2023-05-16T14:57:00.444Z,9.05
2023-05-16T14:59:43.537Z,4.07
2023-05-16T15:02:23.528Z,4.93
2023-05-16T15:05:11.860Z,2.72
2023-05-16T15:07:48.552Z,2.88
2023-05-16T15:10:22.133Z,5.60
2023-05-16T15:15:59.606Z,10.00
2023-05-16T15:18:39.002Z,4.65
2023-05-16T15:21:17.907Z,4.55
2023-05-16T15:23:58.833Z,5.60
2023-05-16T15:26:36.602Z,8.32
2023-05-16T15:29:15.099Z,6.43
2023-05-16T15:31:51.304Z,5.55
2023-05-16T15:34:32.950Z,8.55
2023-05-16T15:37:10.927Z,6.50
2023-05-16T15:42:30.867Z,5.47
2023-05-16T15:44:58.402Z,6.53
2023-05-16T15:47:28.900Z,7.18
2023-05-16T15:50:02.211Z,10.05
2023-05-16T15:52:39.514Z,7.75
2023-05-16T15:55:14.754Z,4.70
2023-05-16T15:57:59.827Z,7.70
2023-05-16T16:00:33.409Z,6.45
2023-05-16T16:03:13.061Z,8.13
2023-05-16T16:05:48.357Z,11.05
2023-05-16T16:08:21.328Z,10.95
2023-05-16T16:10:56.260Z,7.75
2023-05-16T16:13:29.114Z,7.10
2023-05-16T16:21:33.489Z,11.10
2023-05-16T16:24:09.547Z,8.82
2023-05-16T16:26:46.947Z,8.98
2023-05-16T16:29:16.775Z,6.22
2023-05-16T16:31:55.629Z,9.88
2023-05-16T16:34:34.799Z,11.90
2023-05-16T16:39:55.821Z,9.10
2023-05-16T16:42:46.642Z,13.88
2023-05-16T16:48:14.953Z,9.20
2023-05-16T16:50:47.407Z,10.35
2023-05-16T16:53:23.555Z,13.05
2023-05-16T16:55:56.559Z,13.48
2023-05-16T16:58:42.673Z,12.90
2023-05-16T17:01:23.201Z,18.90
2023-05-16T17:04:00.685Z,14.70
2023-05-16T17:06:40.848Z,11.32
2023-05-16T17:09:14.666Z,18.85
2023-05-16T17:11:58.535Z,13.75
2023-05-16T17:14:36.822Z,14.00
2023-05-16T17:17:41.799Z,17.13
2023-05-16T17:20:16.072Z,18.23
2023-05-16T17:22:52.054Z,14.93
2023-05-16T17:25:22.370Z,15.23
2023-05-16T17:27:58.711Z,15.30
2023-05-16T17:30:35.904Z,17.05
2023-05-16T17:33:07.104Z,10.02
2023-05-16T17:35:37.021Z,13.55
2023-05-16T17:38:12.705Z,7.53
2023-05-16T17:43:22.166Z,10.40
2023-05-16T17:46:01.594Z,13.75
2023-05-16T17:54:09.661Z,15.23
2023-05-16T17:56:39.572Z,22.65
2023-05-16T17:59:28.542Z,8.80
2023-05-16T18:02:05.038Z,11.35
2023-05-16T18:04:36.659Z,12.45
2023-05-16T18:07:11.475Z,17.30
2023-05-16T18:09:41.283Z,10.70
2023-05-16T18:12:09.669Z,14.23
2023-05-16T18:17:28.706Z,13.02
2023-05-16T18:22:42.197Z,19.38
2023-05-16T18:25:15.190Z,14.30
2023-05-16T18:27:42.750Z,16.30
2023-05-16T18:30:13.863Z,17.00
2023-05-16T18:32:57.455Z,14.57
2023-05-16T18:35:30.799Z,15.70
2023-05-16T18:38:14.446Z,15.95
2023-05-16T18:40:51.117Z,13.25
2023-05-16T18:43:35.378Z,16.08
2023-05-16T18:46:24.653Z,14.00
2023-05-16T18:49:02.155Z,15.02
2023-05-16T18:51:43.032Z,12.75
2023-05-16T18:54:12.909Z,16.50
2023-05-16T18:56:40.384Z,12.18
2023-05-16T18:59:16.030Z,10.50
2023-05-16T19:02:13.778Z,8.82
2023-05-16T19:05:01.604Z,11.85
2023-05-16T19:07:44.283Z,10.43
2023-05-16T19:10:19.565Z,4.70
2023-05-16T19:13:02.300Z,9.07
2023-05-16T19:15:32.201Z,8.32
2023-05-16T19:18:06.732Z,10.55
2023-05-16T19:20:42.170Z,10.07
2023-05-16T19:23:20.040Z,9.45
2023-05-16T19:25:50.137Z,6.97
2023-05-16T19:28:20.492Z,8.20
2023-05-16T19:30:50.760Z,10.25
2023-05-16T19:33:43.424Z,10.63
2023-05-16T19:36:24.111Z,5.20
2023-05-16T19:38:55.434Z,8.15
2023-05-16T19:41:27.299Z,9.60
2023-05-16T19:43:57.477Z,16.48
2023-05-16T19:46:27.287Z,25.42
2023-05-16T19:48:57.675Z,8.15
2023-05-16T19:51:40.110Z,8.15
2023-05-16T19:54:12.200Z,12.10
2023-05-16T19:56:41.976Z,7.53
2023-05-16T19:59:12.526Z,4.45
2023-05-16T20:04:10.195Z,12.20
2023-05-16T20:06:40.266Z,13.10
2023-05-16T20:09:11.534Z,7.40
2023-05-16T20:11:38.961Z,10.35
2023-05-16T20:14:15.853Z,9.02
2023-05-16T20:16:45.658Z,10.85
2023-05-16T20:19:15.618Z,11.07
2023-05-16T20:21:51.681Z,10.07
2023-05-16T20:24:24.089Z,5.40
2023-05-16T20:26:54.181Z,6.72
2023-05-16T20:29:24.464Z,8.85
2023-05-16T20:31:51.964Z,9.98
2023-05-16T20:34:19.039Z,10.05
2023-05-16T20:36:55.866Z,9.25
2023-05-16T20:39:32.948Z,9.38
2023-05-16T20:42:06.273Z,11.75
2023-05-16T20:44:43.505Z,5.32
2023-05-16T20:47:11.535Z,9.27
2023-05-16T20:49:42.984Z,6.47
2023-05-16T20:52:10.714Z,7.20
2023-05-16T20:54:41.928Z,7.53
2023-05-16T20:57:09.925Z,10.38
2023-05-16T20:59:39.751Z,10.07
2023-05-16T21:02:12.942Z,5.45
2023-05-16T21:04:43.680Z,11.20
2023-05-16T21:07:13.532Z,6.30
2023-05-16T21:09:41.538Z,9.68
2023-05-16T21:12:11.946Z,8.88
2023-05-16T21:14:42.015Z,14.90
2023-05-16T21:17:12.136Z,9.60
2023-05-16T21:19:39.735Z,15.13
2023-05-16T21:22:06.921Z,12.18
2023-05-16T21:24:37.700Z,17.02
2023-05-16T21:27:05.356Z,14.77
2023-05-16T21:29:32.617Z,12.38
2023-05-16T21:32:00.716Z,11.18
2023-05-16T21:34:27.919Z,13.70
2023-05-16T21:37:00.845Z,11.05
2023-05-16T21:39:44.441Z,10.52
2023-05-16T21:42:11.739Z,12.10
2023-05-16T21:44:39.249Z,13.88
2023-05-16T21:47:07.008Z,13.23
2023-05-16T21:49:35.486Z,9.93
2023-05-16T21:52:05.564Z,9.00
2023-05-16T21:54:35.107Z,10.32
2023-05-16T21:57:09.391Z,16.25
2023-05-16T21:59:41.013Z,15.60
2023-05-16T22:02:08.633Z,7.22
2023-05-16T22:04:43.578Z,11.20
2023-05-16T22:07:20.332Z,11.55
2023-05-16T22:09:57.002Z,9.98
2023-05-16T22:12:31.422Z,13.00
2023-05-16T22:15:01.777Z,9.40
2023-05-16T22:17:38.995Z,11.30
2023-05-16T22:20:12.018Z,9.65
2023-05-16T22:22:39.498Z,12.23
2023-05-16T22:25:07.420Z,19.20
2023-05-16T22:27:37.420Z,8.70
2023-05-16T22:30:16.819Z,13.38
2023-05-16T22:32:47.345Z,14.63
2023-05-16T22:35:23.706Z,13.35
2023-05-16T22:38:11.190Z,10.43
2023-05-16T22:40:46.173Z,11.35
2023-05-16T22:43:23.382Z,12.13
2023-05-16T22:45:52.941Z,12.02
2023-05-16T22:48:20.243Z,7.63
2023-05-16T22:51:02.841Z,14.25
2023-05-16T22:53:30.482Z,11.13
2023-05-16T22:56:00.082Z,11.88
2023-05-16T22:58:42.034Z,23.98
2023-05-16T23:01:12.397Z,11.27
2023-05-16T23:03:42.617Z,14.13
2023-05-16T23:06:14.888Z,22.20
2023-05-16T23:08:45.144Z,13.40
2023-05-16T23:11:26.256Z,13.32
2023-05-16T23:14:01.431Z,15.55
2023-05-16T23:16:31.832Z,19.10
2023-05-16T23:19:03.299Z,14.85
2023-05-16T23:21:31.809Z,24.05
2023-05-16T23:23:59.092Z,20.08
2023-05-16T23:26:26.991Z,17.95
2023-05-16T23:28:58.816Z,21.00
2023-05-16T23:31:27.816Z,16.40
2023-05-16T23:34:00.764Z,17.73
2023-05-16T23:36:28.386Z,14.13
2023-05-16T23:38:57.958Z,15.18
2023-05-16T23:41:32.227Z,20.98
2023-05-16T23:44:07.488Z,20.88
2023-05-16T23:46:47.825Z,21.83
2023-05-16T23:49:22.451Z,20.13
2023-05-16T23:51:57.915Z,19.00
2023-05-16T23:54:36.605Z,20.23
2023-05-16T23:57:09.448Z,21.50
2023-05-16T23:59:44.875Z,22.17
